sensor_id;sensor_type;location;lat;lon;timestamp;P1;durP1;ratioP1;P2;durP2;ratioP2
69985;SDS011;57328;52.054;5.294;2023-02-15T00:01:09;34.47;;;14.55;;
69985;SDS011;57328;52.054;5.294;2023-02-15T00:03:37;34.53;;;14.23;;
69985;SDS011;57328;52.054;5.294;2023-02-15T00:06:04;33.20;;;13.43;;
69985;SDS011;57328;52.054;5.294;2023-02-15T00:08:31;40.50;;;15.57;;
69985;SDS011;57328;52.054;5.294;2023-02-15T00:11:06;36.20;;;15.95;;
69985;SDS011;57328;52.054;5.294;2023-02-15T00:13:34;41.42;;;15.70;;
69985;SDS011;57328;52.054;5.294;2023-02-15T00:16:05;40.50;;;15.50;;
69985;SDS011;57328;52.054;5.294;2023-02-15T00:18:32;35.55;;;14.25;;
69985;SDS011;57328;52.054;5.294;2023-02-15T00:21:03;36.00;;;14.80;;
69985;SDS011;57328;52.054;5.294;2023-02-15T00:23:30;36.75;;;15.20;;
69985;SDS011;57328;52.054;5.294;2023-02-15T00:28:31;39.38;;;15.65;;
69985;SDS011;57328;52.054;5.294;2023-02-15T00:31:06;37.38;;;14.77;;
69985;SDS011;57328;52.054;5.294;2023-02-15T00:33:33;37.15;;;15.35;;
69985;SDS011;57328;52.054;5.294;2023-02-15T00:36:00;41.03;;;16.73;;
69985;SDS011;57328;52.054;5.294;2023-02-15T00:38:29;38.38;;;15.23;;
69985;SDS011;57328;52.054;5.294;2023-02-15T00:40:57;35.58;;;14.10;;
69985;SDS011;57328;52.054;5.294;2023-02-15T00:43:25;34.80;;;14.10;;
69985;SDS011;57328;52.054;5.294;2023-02-15T00:45:52;35.47;;;15.73;;
69985;SDS011;57328;52.054;5.294;2023-02-15T00:48:20;33.90;;;14.95;;
69985;SDS011;57328;52.054;5.294;2023-02-15T00:50:51;37.80;;;15.35;;
69985;SDS011;57328;52.054;5.294;2023-02-15T00:53:18;38.30;;;15.15;;
69985;SDS011;57328;52.054;5.294;2023-02-15T00:55:46;35.83;;;14.25;;
69985;SDS011;57328;52.054;5.294;2023-02-15T00:58:13;34.83;;;14.35;;
69985;SDS011;57328;52.054;5.294;2023-02-15T01:00:42;36.53;;;13.77;;
69985;SDS011;57328;52.054;5.294;2023-02-15T01:03:10;43.90;;;14.35;;
69985;SDS011;57328;52.054;5.294;2023-02-15T01:05:37;35.42;;;14.55;;
69985;SDS011;57328;52.054;5.294;2023-02-15T01:08:04;34.28;;;14.15;;
69985;SDS011;57328;52.054;5.294;2023-02-15T01:10:32;38.20;;;15.48;;
69985;SDS011;57328;52.054;5.294;2023-02-15T01:13:00;40.28;;;15.10;;
69985;SDS011;57328;52.054;5.294;2023-02-15T01:15:28;37.78;;;14.32;;
69985;SDS011;57328;52.054;5.294;2023-02-15T01:17:55;39.03;;;15.57;;
69985;SDS011;57328;52.054;5.294;2023-02-15T01:20:24;37.70;;;14.38;;
69985;SDS011;57328;52.054;5.294;2023-02-15T01:25:20;34.05;;;13.70;;
69985;SDS011;57328;52.054;5.294;2023-02-15T01:27:47;34.38;;;13.82;;
69985;SDS011;57328;52.054;5.294;2023-02-15T01:30:14;36.85;;;14.15;;
69985;SDS011;57328;52.054;5.294;2023-02-15T01:32:42;35.92;;;14.23;;
69985;SDS011;57328;52.054;5.294;2023-02-15T01:35:10;35.05;;;14.27;;
69985;SDS011;57328;52.054;5.294;2023-02-15T01:37:37;35.75;;;14.13;;
69985;SDS011;57328;52.054;5.294;2023-02-15T01:40:05;38.60;;;14.82;;
69985;SDS011;57328;52.054;5.294;2023-02-15T01:42:33;35.90;;;14.27;;
69985;SDS011;57328;52.054;5.294;2023-02-15T01:45:44;36.47;;;13.70;;
69985;SDS011;57328;52.054;5.294;2023-02-15T01:47:58;32.22;;;13.10;;
69985;SDS011;57328;52.054;5.294;2023-02-15T01:50:36;39.28;;;13.95;;
69985;SDS011;57328;52.054;5.294;2023-02-15T01:55:39;36.10;;;13.68;;
69985;SDS011;57328;52.054;5.294;2023-02-15T01:58:07;36.22;;;13.65;;
69985;SDS011;57328;52.054;5.294;2023-02-15T02:00:35;34.55;;;13.93;;
69985;SDS011;57328;52.054;5.294;2023-02-15T02:03:02;33.83;;;13.77;;
69985;SDS011;57328;52.054;5.294;2023-02-15T02:05:30;35.35;;;13.73;;
69985;SDS011;57328;52.054;5.294;2023-02-15T02:07:58;31.40;;;13.23;;
69985;SDS011;57328;52.054;5.294;2023-02-15T02:10:26;37.15;;;15.15;;
69985;SDS011;57328;52.054;5.294;2023-02-15T02:12:54;35.80;;;14.57;;
69985;SDS011;57328;52.054;5.294;2023-02-15T02:18:03;35.03;;;13.98;;
69985;SDS011;57328;52.054;5.294;2023-02-15T02:34:01;34.13;;;13.55;;
69985;SDS011;57328;52.054;5.294;2023-02-15T02:36:41;36.72;;;14.15;;
69985;SDS011;57328;52.054;5.294;2023-02-15T02:39:20;35.28;;;13.93;;
69985;SDS011;57328;52.054;5.294;2023-02-15T02:41:51;33.85;;;13.68;;
69985;SDS011;57328;52.054;5.294;2023-02-15T02:47:30;33.97;;;14.48;;
69985;SDS011;57328;52.054;5.294;2023-02-15T02:50:17;31.48;;;12.77;;
69985;SDS011;57328;52.054;5.294;2023-02-15T02:52:46;34.33;;;13.85;;
69985;SDS011;57328;52.054;5.294;2023-02-15T02:55:30;35.00;;;14.27;;
69985;SDS011;57328;52.054;5.294;2023-02-15T03:00:25;34.90;;;14.95;;
69985;SDS011;57328;52.054;5.294;2023-02-15T03:02:57;38.13;;;14.50;;
69985;SDS011;57328;52.054;5.294;2023-02-15T03:05:31;37.70;;;14.32;;
69985;SDS011;57328;52.054;5.294;2023-02-15T03:07:59;32.80;;;12.80;;
69985;SDS011;57328;52.054;5.294;2023-02-15T03:10:32;38.03;;;14.88;;
69985;SDS011;57328;52.054;5.294;2023-02-15T03:13:00;31.17;;;13.57;;
69985;SDS011;57328;52.054;5.294;2023-02-15T03:15:31;37.40;;;14.88;;
69985;SDS011;57328;52.054;5.294;2023-02-15T03:18:22;34.85;;;13.55;;
69985;SDS011;57328;52.054;5.294;2023-02-15T03:23:17;35.05;;;13.65;;
69985;SDS011;57328;52.054;5.294;2023-02-15T03:25:50;33.17;;;13.43;;
69985;SDS011;57328;52.054;5.294;2023-02-15T03:28:19;34.50;;;13.65;;
69985;SDS011;57328;52.054;5.294;2023-02-15T03:30:48;35.97;;;13.75;;
69985;SDS011;57328;52.054;5.294;2023-02-15T03:33:18;36.55;;;13.73;;
69985;SDS011;57328;52.054;5.294;2023-02-15T03:35:52;33.55;;;13.65;;
69985;SDS011;57328;52.054;5.294;2023-02-15T03:38:21;37.05;;;14.45;;
69985;SDS011;57328;52.054;5.294;2023-02-15T03:40:52;33.95;;;13.95;;
69985;SDS011;57328;52.054;5.294;2023-02-15T03:43:52;36.83;;;14.73;;
69985;SDS011;57328;52.054;5.294;2023-02-15T03:48:58;37.97;;;14.85;;
69985;SDS011;57328;52.054;5.294;2023-02-15T03:51:29;36.25;;;14.23;;
69985;SDS011;57328;52.054;5.294;2023-02-15T03:54:01;37.47;;;14.50;;
69985;SDS011;57328;52.054;5.294;2023-02-15T03:56:29;34.63;;;14.10;;
69985;SDS011;57328;52.054;5.294;2023-02-15T03:58:56;40.45;;;15.90;;
69985;SDS011;57328;52.054;5.294;2023-02-15T04:01:45;38.40;;;15.25;;
69985;SDS011;57328;52.054;5.294;2023-02-15T04:04:25;39.42;;;15.82;;
69985;SDS011;57328;52.054;5.294;2023-02-15T04:06:52;40.95;;;15.02;;
69985;SDS011;57328;52.054;5.294;2023-02-15T04:09:19;43.20;;;15.40;;
69985;SDS011;57328;52.054;5.294;2023-02-15T04:12:05;41.33;;;14.68;;
69985;SDS011;57328;52.054;5.294;2023-02-15T04:14:33;39.90;;;15.27;;
69985;SDS011;57328;52.054;5.294;2023-02-15T04:17:19;36.58;;;14.77;;
69985;SDS011;57328;52.054;5.294;2023-02-15T04:19:46;37.20;;;14.52;;
69985;SDS011;57328;52.054;5.294;2023-02-15T04:22:32;40.70;;;15.48;;
69985;SDS011;57328;52.054;5.294;2023-02-15T04:25:18;42.80;;;16.40;;
69985;SDS011;57328;52.054;5.294;2023-02-15T04:27:49;40.67;;;15.52;;
69985;SDS011;57328;52.054;5.294;2023-02-15T04:30:18;40.55;;;16.17;;
69985;SDS011;57328;52.054;5.294;2023-02-15T04:32:45;38.15;;;15.73;;
69985;SDS011;57328;52.054;5.294;2023-02-15T04:35:13;39.08;;;15.90;;
69985;SDS011;57328;52.054;5.294;2023-02-15T04:37:40;41.60;;;16.58;;
69985;SDS011;57328;52.054;5.294;2023-02-15T04:40:09;42.85;;;15.95;;
69985;SDS011;57328;52.054;5.294;2023-02-15T04:42:36;41.90;;;16.05;;
69985;SDS011;57328;52.054;5.294;2023-02-15T04:45:04;37.60;;;15.77;;
69985;SDS011;57328;52.054;5.294;2023-02-15T04:47:31;46.13;;;16.33;;
69985;SDS011;57328;52.054;5.294;2023-02-15T04:49:58;40.67;;;15.75;;
69985;SDS011;57328;52.054;5.294;2023-02-15T04:52:26;40.40;;;16.20;;
69985;SDS011;57328;52.054;5.294;2023-02-15T04:54:53;38.53;;;15.27;;
69985;SDS011;57328;52.054;5.294;2023-02-15T04:57:20;39.83;;;15.50;;
69985;SDS011;57328;52.054;5.294;2023-02-15T04:59:47;39.97;;;15.80;;
69985;SDS011;57328;52.054;5.294;2023-02-15T05:02:14;39.13;;;15.65;;
69985;SDS011;57328;52.054;5.294;2023-02-15T05:04:42;36.60;;;14.50;;
69985;SDS011;57328;52.054;5.294;2023-02-15T05:07:09;37.65;;;13.95;;
69985;SDS011;57328;52.054;5.294;2023-02-15T05:09:36;37.40;;;13.75;;
69985;SDS011;57328;52.054;5.294;2023-02-15T05:12:03;39.97;;;16.08;;
69985;SDS011;57328;52.054;5.294;2023-02-15T05:14:30;36.95;;;15.75;;
69985;SDS011;57328;52.054;5.294;2023-02-15T05:16:58;40.88;;;15.05;;
69985;SDS011;57328;52.054;5.294;2023-02-15T05:19:27;43.92;;;15.40;;
69985;SDS011;57328;52.054;5.294;2023-02-15T05:21:54;40.83;;;15.52;;
69985;SDS011;57328;52.054;5.294;2023-02-15T05:24:21;40.13;;;15.48;;
69985;SDS011;57328;52.054;5.294;2023-02-15T05:27:09;42.38;;;15.90;;
69985;SDS011;57328;52.054;5.294;2023-02-15T05:29:55;40.40;;;15.15;;
69985;SDS011;57328;52.054;5.294;2023-02-15T05:32:23;40.78;;;15.00;;
69985;SDS011;57328;52.054;5.294;2023-02-15T05:34:50;36.50;;;14.75;;
69985;SDS011;57328;52.054;5.294;2023-02-15T05:37:18;39.90;;;15.15;;
69985;SDS011;57328;52.054;5.294;2023-02-15T05:39:45;40.45;;;16.15;;
69985;SDS011;57328;52.054;5.294;2023-02-15T05:42:12;40.75;;;15.50;;
69985;SDS011;57328;52.054;5.294;2023-02-15T05:44:39;42.28;;;15.18;;
69985;SDS011;57328;52.054;5.294;2023-02-15T05:47:06;42.85;;;16.00;;
69985;SDS011;57328;52.054;5.294;2023-02-15T05:49:33;44.17;;;16.65;;
69985;SDS011;57328;52.054;5.294;2023-02-15T05:52:02;35.10;;;14.15;;
69985;SDS011;57328;52.054;5.294;2023-02-15T05:54:29;39.03;;;15.38;;
69985;SDS011;57328;52.054;5.294;2023-02-15T05:56:56;46.92;;;16.10;;
69985;SDS011;57328;52.054;5.294;2023-02-15T05:59:24;42.40;;;15.65;;
69985;SDS011;57328;52.054;5.294;2023-02-15T06:01:51;35.38;;;14.57;;
69985;SDS011;57328;52.054;5.294;2023-02-15T06:04:18;44.25;;;16.00;;
69985;SDS011;57328;52.054;5.294;2023-02-15T06:06:45;39.40;;;15.18;;
69985;SDS011;57328;52.054;5.294;2023-02-15T06:09:13;39.88;;;15.43;;
69985;SDS011;57328;52.054;5.294;2023-02-15T06:11:40;38.63;;;14.85;;
69985;SDS011;57328;52.054;5.294;2023-02-15T06:14:07;38.67;;;16.00;;
69985;SDS011;57328;52.054;5.294;2023-02-15T06:16:34;35.50;;;14.80;;
69985;SDS011;57328;52.054;5.294;2023-02-15T06:19:02;45.17;;;16.40;;
69985;SDS011;57328;52.054;5.294;2023-02-15T06:21:30;41.38;;;14.75;;
69985;SDS011;57328;52.054;5.294;2023-02-15T06:23:57;44.25;;;16.27;;
69985;SDS011;57328;52.054;5.294;2023-02-15T06:26:24;41.38;;;15.38;;
69985;SDS011;57328;52.054;5.294;2023-02-15T06:28:51;42.72;;;16.63;;
69985;SDS011;57328;52.054;5.294;2023-02-15T06:31:19;44.90;;;16.20;;
69985;SDS011;57328;52.054;5.294;2023-02-15T06:33:46;46.72;;;16.80;;
69985;SDS011;57328;52.054;5.294;2023-02-15T06:36:13;34.40;;;13.82;;
69985;SDS011;57328;52.054;5.294;2023-02-15T06:38:40;41.55;;;16.38;;
69985;SDS011;57328;52.054;5.294;2023-02-15T06:41:07;40.33;;;15.88;;
69985;SDS011;57328;52.054;5.294;2023-02-15T06:43:35;43.65;;;15.75;;
69985;SDS011;57328;52.054;5.294;2023-02-15T06:46:03;39.88;;;16.40;;
69985;SDS011;57328;52.054;5.294;2023-02-15T06:48:30;42.70;;;16.50;;
69985;SDS011;57328;52.054;5.294;2023-02-15T06:50:57;38.28;;;15.43;;
69985;SDS011;57328;52.054;5.294;2023-02-15T06:53:25;36.20;;;14.70;;
69985;SDS011;57328;52.054;5.294;2023-02-15T06:55:52;39.72;;;16.35;;
69985;SDS011;57328;52.054;5.294;2023-02-15T06:58:19;38.67;;;15.45;;
69985;SDS011;57328;52.054;5.294;2023-02-15T07:00:46;35.92;;;12.77;;
69985;SDS011;57328;52.054;5.294;2023-02-15T07:03:15;41.05;;;15.82;;
69985;SDS011;57328;52.054;5.294;2023-02-15T07:05:42;42.78;;;17.10;;
69985;SDS011;57328;52.054;5.294;2023-02-15T07:08:10;40.95;;;16.55;;
69985;SDS011;57328;52.054;5.294;2023-02-15T07:10:38;42.13;;;15.85;;
69985;SDS011;57328;52.054;5.294;2023-02-15T07:13:05;35.17;;;14.60;;
69985;SDS011;57328;52.054;5.294;2023-02-15T07:15:32;41.15;;;14.98;;
69985;SDS011;57328;52.054;5.294;2023-02-15T07:17:59;42.42;;;15.60;;
69985;SDS011;57328;52.054;5.294;2023-02-15T07:20:27;45.00;;;16.98;;
69985;SDS011;57328;52.054;5.294;2023-02-15T07:22:55;44.58;;;16.50;;
69985;SDS011;57328;52.054;5.294;2023-02-15T07:25:22;45.20;;;16.45;;
69985;SDS011;57328;52.054;5.294;2023-02-15T07:27:55;42.08;;;14.63;;
69985;SDS011;57328;52.054;5.294;2023-02-15T07:30:23;41.63;;;17.27;;
69985;SDS011;57328;52.054;5.294;2023-02-15T07:32:50;43.85;;;16.77;;
69985;SDS011;57328;52.054;5.294;2023-02-15T07:35:36;44.60;;;17.63;;
69985;SDS011;57328;52.054;5.294;2023-02-15T07:38:03;39.42;;;16.13;;
69985;SDS011;57328;52.054;5.294;2023-02-15T07:40:30;47.45;;;18.02;;
69985;SDS011;57328;52.054;5.294;2023-02-15T07:42:58;33.40;;;13.43;;
69985;SDS011;57328;52.054;5.294;2023-02-15T07:45:25;38.97;;;16.52;;
69985;SDS011;57328;52.054;5.294;2023-02-15T07:47:53;37.55;;;16.48;;
69985;SDS011;57328;52.054;5.294;2023-02-15T07:50:20;33.53;;;14.50;;
69985;SDS011;57328;52.054;5.294;2023-02-15T07:52:47;37.03;;;15.50;;
69985;SDS011;57328;52.054;5.294;2023-02-15T07:55:14;36.05;;;16.05;;
69985;SDS011;57328;52.054;5.294;2023-02-15T07:57:42;37.53;;;15.75;;
69985;SDS011;57328;52.054;5.294;2023-02-15T08:00:11;35.88;;;15.80;;
69985;SDS011;57328;52.054;5.294;2023-02-15T08:05:06;33.28;;;14.63;;
69985;SDS011;57328;52.054;5.294;2023-02-15T08:07:34;32.55;;;13.80;;
69985;SDS011;57328;52.054;5.294;2023-02-15T08:10:01;33.85;;;14.57;;
69985;SDS011;57328;52.054;5.294;2023-02-15T08:12:28;32.65;;;16.05;;
69985;SDS011;57328;52.054;5.294;2023-02-15T08:14:55;32.90;;;15.57;;
69985;SDS011;57328;52.054;5.294;2023-02-15T08:17:23;30.48;;;13.00;;
69985;SDS011;57328;52.054;5.294;2023-02-15T08:19:50;35.53;;;15.80;;
69985;SDS011;57328;52.054;5.294;2023-02-15T08:22:18;35.53;;;15.48;;
69985;SDS011;57328;52.054;5.294;2023-02-15T08:24:45;33.75;;;15.23;;
69985;SDS011;57328;52.054;5.294;2023-02-15T08:27:13;39.97;;;16.33;;
69985;SDS011;57328;52.054;5.294;2023-02-15T08:29:40;30.88;;;13.20;;
69985;SDS011;57328;52.054;5.294;2023-02-15T08:32:09;32.60;;;14.85;;
69985;SDS011;57328;52.054;5.294;2023-02-15T08:34:38;31.77;;;14.60;;
69985;SDS011;57328;52.054;5.294;2023-02-15T08:37:05;35.63;;;16.25;;
69985;SDS011;57328;52.054;5.294;2023-02-15T08:39:32;39.60;;;16.23;;
69985;SDS011;57328;52.054;5.294;2023-02-15T08:42:00;32.13;;;14.48;;
69985;SDS011;57328;52.054;5.294;2023-02-15T08:44:27;33.47;;;15.82;;
69985;SDS011;57328;52.054;5.294;2023-02-15T08:46:55;33.65;;;15.77;;
69985;SDS011;57328;52.054;5.294;2023-02-15T08:49:28;33.05;;;14.77;;
69985;SDS011;57328;52.054;5.294;2023-02-15T08:51:56;40.60;;;16.33;;
69985;SDS011;57328;52.054;5.294;2023-02-15T08:54:23;36.85;;;16.08;;
69985;SDS011;57328;52.054;5.294;2023-02-15T08:56:50;33.95;;;14.93;;
69985;SDS011;57328;52.054;5.294;2023-02-15T08:59:19;34.78;;;15.52;;
69985;SDS011;57328;52.054;5.294;2023-02-15T09:01:47;37.75;;;16.98;;
69985;SDS011;57328;52.054;5.294;2023-02-15T09:04:15;41.67;;;16.83;;
69985;SDS011;57328;52.054;5.294;2023-02-15T09:06:43;31.88;;;14.52;;
69985;SDS011;57328;52.054;5.294;2023-02-15T09:09:13;39.00;;;16.00;;
69985;SDS011;57328;52.054;5.294;2023-02-15T09:11:42;35.97;;;16.38;;
69985;SDS011;57328;52.054;5.294;2023-02-15T09:14:11;35.53;;;16.13;;
69985;SDS011;57328;52.054;5.294;2023-02-15T09:16:42;40.65;;;16.60;;
69985;SDS011;57328;52.054;5.294;2023-02-15T09:19:15;37.67;;;16.13;;
69985;SDS011;57328;52.054;5.294;2023-02-15T09:21:43;37.60;;;16.73;;
69985;SDS011;57328;52.054;5.294;2023-02-15T09:24:12;39.70;;;15.93;;
69985;SDS011;57328;52.054;5.294;2023-02-15T09:26:40;38.90;;;16.83;;
69985;SDS011;57328;52.054;5.294;2023-02-15T09:29:08;37.42;;;17.92;;
69985;SDS011;57328;52.054;5.294;2023-02-15T09:31:40;38.58;;;16.85;;
69985;SDS011;57328;52.054;5.294;2023-02-15T09:34:11;35.95;;;16.58;;
69985;SDS011;57328;52.054;5.294;2023-02-15T09:36:39;35.13;;;15.73;;
69985;SDS011;57328;52.054;5.294;2023-02-15T09:49:16;40.42;;;17.58;;
69985;SDS011;57328;52.054;5.294;2023-02-15T09:51:55;42.33;;;17.60;;
69985;SDS011;57328;52.054;5.294;2023-02-15T09:54:38;39.85;;;17.83;;
69985;SDS011;57328;52.054;5.294;2023-02-15T09:59:45;41.90;;;18.48;;
69985;SDS011;57328;52.054;5.294;2023-02-15T10:02:27;36.15;;;17.08;;
69985;SDS011;57328;52.054;5.294;2023-02-15T10:07:46;41.85;;;19.30;;
69985;SDS011;57328;52.054;5.294;2023-02-15T10:28:32;39.88;;;18.17;;
69985;SDS011;57328;52.054;5.294;2023-02-15T10:31:07;40.38;;;19.30;;
69985;SDS011;57328;52.054;5.294;2023-02-15T10:33:40;38.92;;;18.58;;
69985;SDS011;57328;52.054;5.294;2023-02-15T10:36:30;40.50;;;18.23;;
69985;SDS011;57328;52.054;5.294;2023-02-15T10:59:32;44.40;;;20.45;;
69985;SDS011;57328;52.054;5.294;2023-02-15T11:02:11;42.92;;;19.98;;
69985;SDS011;57328;52.054;5.294;2023-02-15T11:04:48;39.42;;;18.55;;
69985;SDS011;57328;52.054;5.294;2023-02-15T11:07:28;42.95;;;18.73;;
69985;SDS011;57328;52.054;5.294;2023-02-15T11:12:43;40.60;;;18.55;;
69985;SDS011;57328;52.054;5.294;2023-02-15T11:18:00;41.38;;;19.83;;
69985;SDS011;57328;52.054;5.294;2023-02-15T11:20:33;39.50;;;18.17;;
69985;SDS011;57328;52.054;5.294;2023-02-15T11:23:02;39.65;;;19.85;;
69985;SDS011;57328;52.054;5.294;2023-02-15T11:27:58;40.00;;;19.50;;
69985;SDS011;57328;52.054;5.294;2023-02-15T11:30:40;41.65;;;19.77;;
69985;SDS011;57328;52.054;5.294;2023-02-15T11:33:15;46.33;;;20.55;;
69985;SDS011;57328;52.054;5.294;2023-02-15T11:35:49;43.30;;;20.27;;
69985;SDS011;57328;52.054;5.294;2023-02-15T11:38:31;41.97;;;19.27;;
69985;SDS011;57328;52.054;5.294;2023-02-15T11:41:00;47.80;;;19.52;;
69985;SDS011;57328;52.054;5.294;2023-02-15T11:43:49;43.25;;;20.30;;
69985;SDS011;57328;52.054;5.294;2023-02-15T11:46:20;40.53;;;19.15;;
69985;SDS011;57328;52.054;5.294;2023-02-15T11:48:47;43.05;;;19.33;;
69985;SDS011;57328;52.054;5.294;2023-02-15T11:51:16;42.42;;;20.05;;
69985;SDS011;57328;52.054;5.294;2023-02-15T11:53:44;44.47;;;20.88;;
69985;SDS011;57328;52.054;5.294;2023-02-15T11:56:13;40.10;;;19.45;;
69985;SDS011;57328;52.054;5.294;2023-02-15T12:01:09;42.92;;;19.90;;
69985;SDS011;57328;52.054;5.294;2023-02-15T12:03:43;40.80;;;19.80;;
69985;SDS011;57328;52.054;5.294;2023-02-15T12:06:23;41.90;;;19.42;;
69985;SDS011;57328;52.054;5.294;2023-02-15T12:11:36;37.78;;;18.27;;
69985;SDS011;57328;52.054;5.294;2023-02-15T12:14:05;45.35;;;20.15;;
69985;SDS011;57328;52.054;5.294;2023-02-15T12:16:43;40.58;;;19.98;;
69985;SDS011;57328;52.054;5.294;2023-02-15T12:21:56;40.90;;;19.98;;
69985;SDS011;57328;52.054;5.294;2023-02-15T12:24:28;38.35;;;20.40;;
69985;SDS011;57328;52.054;5.294;2023-02-15T12:26:59;38.05;;;19.42;;
69985;SDS011;57328;52.054;5.294;2023-02-15T12:29:29;44.15;;;20.13;;
69985;SDS011;57328;52.054;5.294;2023-02-15T12:31:57;38.47;;;19.50;;
69985;SDS011;57328;52.054;5.294;2023-02-15T12:34:26;42.30;;;20.70;;
69985;SDS011;57328;52.054;5.294;2023-02-15T12:36:56;42.42;;;20.00;;
69985;SDS011;57328;52.054;5.294;2023-02-15T12:39:29;40.67;;;19.98;;
69985;SDS011;57328;52.054;5.294;2023-02-15T12:41:57;39.80;;;18.98;;
69985;SDS011;57328;52.054;5.294;2023-02-15T12:44:35;42.70;;;20.55;;
69985;SDS011;57328;52.054;5.294;2023-02-15T12:47:17;45.30;;;21.52;;
69985;SDS011;57328;52.054;5.294;2023-02-15T12:49:45;43.00;;;20.40;;
69985;SDS011;57328;52.054;5.294;2023-02-15T12:52:30;41.60;;;21.35;;
69985;SDS011;57328;52.054;5.294;2023-02-15T12:55:09;44.72;;;20.35;;
69985;SDS011;57328;52.054;5.294;2023-02-15T12:57:37;41.13;;;20.85;;
69985;SDS011;57328;52.054;5.294;2023-02-15T13:00:05;47.08;;;21.92;;
69985;SDS011;57328;52.054;5.294;2023-02-15T13:02:47;44.20;;;20.05;;
69985;SDS011;57328;52.054;5.294;2023-02-15T13:08:10;49.60;;;21.77;;
69985;SDS011;57328;52.054;5.294;2023-02-15T13:10:54;45.00;;;20.83;;
69985;SDS011;57328;52.054;5.294;2023-02-15T13:13:26;42.28;;;20.70;;
69985;SDS011;57328;52.054;5.294;2023-02-15T13:15:56;42.85;;;20.48;;
69985;SDS011;57328;52.054;5.294;2023-02-15T13:18:35;43.30;;;20.85;;
69985;SDS011;57328;52.054;5.294;2023-02-15T13:21:16;41.72;;;21.27;;
69985;SDS011;57328;52.054;5.294;2023-02-15T13:23:49;44.65;;;22.33;;
69985;SDS011;57328;52.054;5.294;2023-02-15T13:26:21;44.00;;;21.20;;
69985;SDS011;57328;52.054;5.294;2023-02-15T13:28:51;43.35;;;20.58;;
69985;SDS011;57328;52.054;5.294;2023-02-15T13:31:20;46.40;;;23.05;;
69985;SDS011;57328;52.054;5.294;2023-02-15T13:34:07;44.38;;;21.30;;
69985;SDS011;57328;52.054;5.294;2023-02-15T13:36:49;45.30;;;21.85;;
69985;SDS011;57328;52.054;5.294;2023-02-15T13:41:53;46.20;;;21.58;;
69985;SDS011;57328;52.054;5.294;2023-02-15T13:47:11;47.08;;;21.63;;
69985;SDS011;57328;52.054;5.294;2023-02-15T13:59:58;44.28;;;21.92;;
69985;SDS011;57328;52.054;5.294;2023-02-15T14:02:35;44.15;;;22.42;;
69985;SDS011;57328;52.054;5.294;2023-02-15T14:07:45;45.53;;;21.58;;
69985;SDS011;57328;52.054;5.294;2023-02-15T14:17:53;47.13;;;22.67;;
69985;SDS011;57328;52.054;5.294;2023-02-15T14:20:29;44.70;;;20.85;;
69985;SDS011;57328;52.054;5.294;2023-02-15T14:25:50;43.17;;;20.88;;
69985;SDS011;57328;52.054;5.294;2023-02-15T14:28:26;43.67;;;22.13;;
69985;SDS011;57328;52.054;5.294;2023-02-15T14:30:56;45.97;;;22.08;;
69985;SDS011;57328;52.054;5.294;2023-02-15T14:33:34;49.00;;;22.50;;
69985;SDS011;57328;52.054;5.294;2023-02-15T14:36:02;42.10;;;20.88;;
69985;SDS011;57328;52.054;5.294;2023-02-15T14:41:16;43.50;;;21.33;;
69985;SDS011;57328;52.054;5.294;2023-02-15T14:46:30;44.80;;;21.17;;
69985;SDS011;57328;52.054;5.294;2023-02-15T14:51:58;44.15;;;21.77;;
69985;SDS011;57328;52.054;5.294;2023-02-15T15:02:13;48.40;;;21.83;;
69985;SDS011;57328;52.054;5.294;2023-02-15T15:05:26;42.30;;;21.00;;
69985;SDS011;57328;52.054;5.294;2023-02-15T15:10:05;46.50;;;21.35;;
69985;SDS011;57328;52.054;5.294;2023-02-15T15:12:45;47.60;;;22.67;;
69985;SDS011;57328;52.054;5.294;2023-02-15T15:15:38;44.97;;;21.75;;
69985;SDS011;57328;52.054;5.294;2023-02-15T15:18:04;45.92;;;22.83;;
69985;SDS011;57328;52.054;5.294;2023-02-15T15:20:40;43.95;;;21.27;;
69985;SDS011;57328;52.054;5.294;2023-02-15T15:28:08;48.38;;;23.33;;
69985;SDS011;57328;52.054;5.294;2023-02-15T15:33:13;47.53;;;23.52;;
69985;SDS011;57328;52.054;5.294;2023-02-15T15:48:43;47.25;;;22.80;;
69985;SDS011;57328;52.054;5.294;2023-02-15T15:51:17;52.63;;;22.67;;
69985;SDS011;57328;52.054;5.294;2023-02-15T15:53:46;43.70;;;22.20;;
69985;SDS011;57328;52.054;5.294;2023-02-15T15:56:18;45.55;;;22.38;;
69985;SDS011;57328;52.054;5.294;2023-02-15T15:58:50;46.30;;;23.08;;
69985;SDS011;57328;52.054;5.294;2023-02-15T16:01:23;48.97;;;22.58;;
69985;SDS011;57328;52.054;5.294;2023-02-15T16:03:51;47.05;;;21.90;;
69985;SDS011;57328;52.054;5.294;2023-02-15T16:06:26;46.75;;;23.00;;
69985;SDS011;57328;52.054;5.294;2023-02-15T16:08:53;46.28;;;23.33;;
69985;SDS011;57328;52.054;5.294;2023-02-15T16:11:25;52.10;;;23.80;;
69985;SDS011;57328;52.054;5.294;2023-02-15T16:13:53;49.90;;;23.90;;
69985;SDS011;57328;52.054;5.294;2023-02-15T16:16:21;52.55;;;24.70;;
69985;SDS011;57328;52.054;5.294;2023-02-15T16:18:49;51.67;;;22.88;;
69985;SDS011;57328;52.054;5.294;2023-02-15T16:21:18;53.58;;;25.25;;
69985;SDS011;57328;52.054;5.294;2023-02-15T16:28:49;47.38;;;23.02;;
69985;SDS011;57328;52.054;5.294;2023-02-15T16:31:17;51.95;;;23.15;;
69985;SDS011;57328;52.054;5.294;2023-02-15T16:33:45;53.65;;;24.30;;
69985;SDS011;57328;52.054;5.294;2023-02-15T16:41:17;50.45;;;24.05;;
69985;SDS011;57328;52.054;5.294;2023-02-15T16:43:48;51.65;;;24.27;;
69985;SDS011;57328;52.054;5.294;2023-02-15T16:46:18;52.50;;;24.88;;
69985;SDS011;57328;52.054;5.294;2023-02-15T16:48:48;53.20;;;24.55;;
69985;SDS011;57328;52.054;5.294;2023-02-15T16:51:18;58.30;;;26.48;;
69985;SDS011;57328;52.054;5.294;2023-02-15T16:53:47;52.35;;;25.88;;
69985;SDS011;57328;52.054;5.294;2023-02-15T16:56:15;54.78;;;26.92;;
69985;SDS011;57328;52.054;5.294;2023-02-15T16:58:44;58.03;;;28.20;;
69985;SDS011;57328;52.054;5.294;2023-02-15T17:01:13;58.05;;;27.10;;
69985;SDS011;57328;52.054;5.294;2023-02-15T17:03:41;57.85;;;26.33;;
69985;SDS011;57328;52.054;5.294;2023-02-15T17:06:22;58.83;;;26.63;;
69985;SDS011;57328;52.054;5.294;2023-02-15T17:08:52;58.70;;;26.95;;
69985;SDS011;57328;52.054;5.294;2023-02-15T17:11:21;59.80;;;25.75;;
69985;SDS011;57328;52.054;5.294;2023-02-15T17:19:53;57.90;;;27.63;;
69985;SDS011;57328;52.054;5.294;2023-02-15T17:22:02;65.05;;;27.90;;
69985;SDS011;57328;52.054;5.294;2023-02-15T17:26:58;63.42;;;27.95;;
69985;SDS011;57328;52.054;5.294;2023-02-15T17:29:37;57.25;;;26.15;;
69985;SDS011;57328;52.054;5.294;2023-02-15T17:32:11;54.08;;;26.20;;
69985;SDS011;57328;52.054;5.294;2023-02-15T17:34:47;60.00;;;26.10;;
69985;SDS011;57328;52.054;5.294;2023-02-15T17:40:25;57.33;;;25.08;;
69985;SDS011;57328;52.054;5.294;2023-02-15T17:42:55;56.95;;;25.40;;
69985;SDS011;57328;52.054;5.294;2023-02-15T17:45:25;55.55;;;25.23;;
69985;SDS011;57328;52.054;5.294;2023-02-15T17:47:52;57.35;;;25.50;;
69985;SDS011;57328;52.054;5.294;2023-02-15T17:50:27;54.72;;;24.13;;
69985;SDS011;57328;52.054;5.294;2023-02-15T17:52:55;54.40;;;26.10;;
69985;SDS011;57328;52.054;5.294;2023-02-15T17:55:22;59.30;;;25.17;;
69985;SDS011;57328;52.054;5.294;2023-02-15T17:58:08;59.08;;;24.70;;
69985;SDS011;57328;52.054;5.294;2023-02-15T18:00:44;59.95;;;26.80;;